Time;durP1;ratioP1;P1;durP2;ratioP2;P2;SDS_P1;SDS_P2;PMS_P1;PMS_P2;Temp;Humidity;BMP_temperature;BMP_pressure;BME280_temperature;BME280_humidity;BME280_pressure;Samples;Min_cycle;Max_cycle;Signal;HPM_P1;HPM_P2
2022/01/29 00:00:15;;;;;;;0.30;0.20;;;20.00;42.00;;;;;;4947857;28;20047;-67
2022/01/29 00:02:42;;;;;;;1.58;0.30;;;19.90;41.90;;;;;;4947962;28;20050;-67
2022/01/29 00:05:10;;;;;;;0.30;0.25;;;19.90;41.90;;;;;;4948263;28;20086;-67
2022/01/29 00:07:41;;;;;;;1.10;0.20;;;19.90;41.90;;;;;;4949336;29;20551;-67
2022/01/29 00:10:09;;;;;;;0.25;0.22;;;19.90;41.90;;;;;;4935319;29;20074;-68
2022/01/29 00:12:36;;;;;;;0.20;0.20;;;19.90;42.00;;;;;;4946811;28;20167;-67
2022/01/29 00:15:04;;;;;;;0.60;0.30;;;19.90;42.00;;;;;;4938426;28;20508;-50
2022/01/29 00:17:31;;;;;;;2.20;0.38;;;19.90;42.00;;;;;;4930159;29;20051;-49
2022/01/29 00:19:58;;;;;;;0.73;0.30;;;19.90;42.10;;;;;;4945320;29;20452;-49
2022/01/29 00:22:26;;;;;;;0.43;0.32;;;19.90;42.10;;;;;;4933993;29;20119;-51
2022/01/29 00:24:56;;;;;;;1.65;0.45;;;19.90;42.20;;;;;;4933599;29;20146;-53
2022/01/29 00:27:26;;;;;;;1.17;0.40;;;19.90;42.30;;;;;;4933841;29;20043;-50
2022/01/29 00:29:54;;;;;;;0.77;0.40;;;19.90;42.30;;;;;;4933368;29;20066;-51
2022/01/29 00:32:21;;;;;;;2.05;0.40;;;19.90;42.40;;;;;;4931009;29;20043;-48
2022/01/29 00:34:48;;;;;;;1.50;0.20;;;19.90;42.40;;;;;;4945100;29;20488;-48
2022/01/29 00:37:15;;;;;;;0.28;0.25;;;19.90;42.50;;;;;;4929453;29;20044;-61
2022/01/29 00:39:42;;;;;;;2.90;1.15;;;19.90;42.50;;;;;;4939619;28;20047;-68
2022/01/29 00:42:10;;;;;;;6.32;0.28;;;19.90;42.60;;;;;;4942451;28;21076;-68
2022/01/29 00:44:37;;;;;;;1.20;0.52;;;19.90;42.70;;;;;;4941478;28;20057;-68
2022/01/29 00:47:05;;;;;;;5.15;0.47;;;19.90;42.70;;;;;;4946213;28;20122;-67
2022/01/29 00:49:32;;;;;;;1.58;0.40;;;19.80;42.70;;;;;;4945204;28;20039;-66
2022/01/29 00:51:59;;;;;;;0.70;0.30;;;19.90;42.70;;;;;;4945714;28;20043;-66
2022/01/29 00:54:26;;;;;;;3.60;0.63;;;19.90;42.70;;;;;;4945004;28;20051;-65
2022/01/29 00:56:53;;;;;;;5.15;0.43;;;19.80;42.70;;;;;;4946841;28;20079;-66
2022/01/29 00:59:22;;;;;;;4.85;0.25;;;19.90;42.80;;;;;;4929735;28;20050;-67
2022/01/29 01:01:50;;;;;;;7.78;0.55;;;19.90;42.80;;;;;;4947724;28;20048;-67
2022/01/29 01:04:17;;;;;;;3.55;0.10;;;19.80;42.80;;;;;;4948563;28;20050;-66
2022/01/29 01:06:44;;;;;;;1.55;0.40;;;19.80;42.90;;;;;;4951133;28;20126;-67
2022/01/29 01:09:11;;;;;;;1.92;0.22;;;19.80;42.80;;;;;;4950340;28;20047;-65
2022/01/29 01:11:38;;;;;;;2.45;0.35;;;19.80;42.80;;;;;;4950603;28;20217;-65
2022/01/29 01:14:05;;;;;;;0.40;0.30;;;19.80;42.90;;;;;;4951158;28;20050;-67
2022/01/29 01:16:34;;;;;;;4.28;1.05;;;19.80;42.90;;;;;;4952758;29;20049;-66
2022/01/29 01:19:02;;;;;;;0.82;0.20;;;19.80;42.90;;;;;;4948729;28;20046;-66
2022/01/29 01:21:29;;;;;;;3.53;1.23;;;19.80;42.90;;;;;;4951662;28;20043;-66
2022/01/29 01:23:56;;;;;;;0.38;0.32;;;19.80;42.90;;;;;;4950463;28;20047;-66
2022/01/29 01:26:23;;;;;;;2.28;0.32;;;19.80;42.90;;;;;;4950905;28;20043;-68
2022/01/29 01:28:50;;;;;;;2.20;0.20;;;19.80;43.00;;;;;;4950943;28;20043;-67
2022/01/29 01:31:17;;;;;;;1.17;0.20;;;19.80;43.00;;;;;;4951918;28;20051;-67
2022/01/29 01:33:47;;;;;;;0.85;0.20;;;19.80;43.00;;;;;;4950565;28;20134;-67
2022/01/29 01:36:16;;;;;;;1.50;0.43;;;19.80;43.10;;;;;;4950729;28;20591;-67
2022/01/29 01:38:48;;;;;;;0.45;0.45;;;19.70;43.00;;;;;;4950580;28;20053;-68
2022/01/29 01:41:21;;;;;;;0.20;0.20;;;19.80;43.10;;;;;;4932485;28;20035;-67
2022/01/29 01:43:48;;;;;;;0.40;0.10;;;19.80;43.10;;;;;;4951293;28;20710;-67
2022/01/29 01:46:15;;;;;;;0.98;0.20;;;19.70;43.10;;;;;;4951556;28;20051;-66
2022/01/29 01:48:42;;;;;;;1.20;0.10;;;19.70;43.10;;;;;;4947569;28;20043;-67
2022/01/29 01:51:11;;;;;;;0.85;0.10;;;19.70;43.10;;;;;;4947643;28;20043;-66
2022/01/29 01:53:39;;;;;;;0.20;0.10;;;19.80;43.20;;;;;;4945443;28;20436;-66
2022/01/29 01:56:06;;;;;;;1.58;0.20;;;19.70;43.20;;;;;;4949056;28;20437;-66
2022/01/29 01:58:33;;;;;;;0.45;0.30;;;19.70;43.20;;;;;;4951969;29;20058;-66
2022/01/29 02:01:00;;;;;;;1.08;0.60;;;19.70;43.20;;;;;;4950123;28;20412;-66
2022/01/29 02:03:27;;;;;;;0.95;0.20;;;19.70;43.20;;;;;;4950285;28;20766;-66
2022/01/29 02:05:54;;;;;;;0.73;0.20;;;19.70;43.30;;;;;;4950469;28;20036;-66
2022/01/29 02:08:22;;;;;;;0.25;0.10;;;19.70;43.30;;;;;;4949884;28;20087;-67
2022/01/29 02:10:50;;;;;;;1.38;0.20;;;19.70;43.30;;;;;;4950345;28;20504;-67
2022/01/29 02:13:18;;;;;;;1.08;0.10;;;19.70;43.30;;;;;;4951091;28;20146;-67
2022/01/29 02:15:47;;;;;;;1.85;0.20;;;19.70;43.40;;;;;;4949948;28;20051;-67
2022/01/29 02:18:15;;;;;;;0.20;0.20;;;19.70;43.40;;;;;;4949433;28;20055;-67
2022/01/29 02:20:44;;;;;;;0.30;0.30;;;19.70;43.40;;;;;;4947700;28;20431;-67
2022/01/29 02:23:13;;;;;;;0.68;0.20;;;19.70;43.50;;;;;;4949584;28;20059;-67
2022/01/29 02:25:41;;;;;;;0.28;0.10;;;19.70;43.50;;;;;;4951077;29;20051;-67
2022/01/29 02:28:11;;;;;;;2.67;0.10;;;19.60;43.50;;;;;;4949114;28;20047;-67
2022/01/29 02:30:42;;;;;;;0.57;0.10;;;19.70;43.60;;;;;;4945514;28;20043;-66
2022/01/29 02:33:13;;;;;;;0.20;0.10;;;19.60;43.60;;;;;;4949756;28;20050;-66
2022/01/29 02:35:41;;;;;;;1.25;0.30;;;19.70;43.70;;;;;;4949438;28;20102;-66
2022/01/29 02:38:08;;;;;;;2.22;1.20;;;19.60;43.70;;;;;;4949431;28;20043;-66
2022/01/29 02:40:44;;;;;;;0.20;0.10;;;19.70;43.80;;;;;;4950324;28;20054;-66
2022/01/29 02:43:12;;;;;;;;;;;19.60;43.80;;;;;;4950163;28;20039;-66
2022/01/29 02:45:41;;;;;;;0.65;0.28;;;19.60;43.70;;;;;;4946663;28;19930;-66
2022/01/29 02:48:08;;;;;;;0.38;0.38;;;19.60;44.00;;;;;;4946367;28;20051;-66
2022/01/29 02:50:35;;;;;;;0.68;0.32;;;19.60;43.90;;;;;;4948512;28;20054;-67
2022/01/29 02:53:02;;;;;;;0.20;0.10;;;19.60;44.00;;;;;;4946942;28;20043;-67
2022/01/29 02:55:29;;;;;;;0.20;0.13;;;19.60;44.00;;;;;;4949211;29;20512;-67
2022/01/29 02:57:58;;;;;;;0.60;0.10;;;19.60;44.00;;;;;;4948998;28;20086;-67
2022/01/29 03:00:25;;;;;;;0.15;0.10;;;19.60;44.00;;;;;;4948908;28;20077;-67
2022/01/29 03:02:53;;;;;;;0.30;0.30;;;19.60;44.00;;;;;;4948983;28;20057;-67
2022/01/29 03:05:20;;;;;;;0.20;0.10;;;19.60;44.00;;;;;;4948328;28;20043;-66
2022/01/29 03:07:47;;;;;;;0.20;0.13;;;19.60;44.10;;;;;;4948527;28;20059;-67
2022/01/29 03:10:14;;;;;;;1.17;0.17;;;19.50;44.00;;;;;;4949250;28;20043;-66
2022/01/29 03:12:42;;;;;;;0.10;0.10;;;19.60;44.10;;;;;;4950760;28;20504;-67
2022/01/29 03:15:12;;;;;;;1.65;0.10;;;19.60;44.10;;;;;;4948623;28;20035;-67
2022/01/29 03:17:39;;;;;;;1.60;0.20;;;19.60;44.10;;;;;;4948679;28;20872;-67
2022/01/29 03:20:07;;;;;;;0.70;0.10;;;19.60;44.10;;;;;;4948718;28;20047;-66
2022/01/29 03:22:34;;;;;;;0.43;0.10;;;19.50;44.10;;;;;;4950120;29;20061;-67
2022/01/29 03:25:02;;;;;;;0.13;0.10;;;19.60;44.10;;;;;;4948350;28;20047;-67
2022/01/29 03:27:30;;;;;;;0.55;0.10;;;19.60;44.20;;;;;;4948315;28;20051;-68
2022/01/29 03:29:57;;;;;;;0.22;0.10;;;19.60;44.20;;;;;;4948322;28;20039;-67
2022/01/29 03:32:26;;;;;;;0.20;0.10;;;19.50;44.20;;;;;;4948494;28;20784;-67
2022/01/29 03:34:53;;;;;;;0.65;0.10;;;19.50;44.20;;;;;;4949048;28;20043;-69
2022/01/29 03:37:20;;;;;;;0.10;0.10;;;19.50;44.30;;;;;;4949408;28;20073;-67
2022/01/29 03:39:47;;;;;;;1.25;0.77;;;19.50;44.30;;;;;;4947970;28;20515;-69
2022/01/29 03:42:15;;;;;;;1.55;0.10;;;19.50;44.30;;;;;;4946807;28;20062;-68
2022/01/29 03:44:42;;;;;;;2.15;0.13;;;19.50;44.40;;;;;;4950522;28;20093;-67
2022/01/29 03:47:09;;;;;;;0.10;0.10;;;19.50;44.40;;;;;;4949710;28;20059;-68
2022/01/29 03:49:38;;;;;;;0.30;0.10;;;19.50;44.40;;;;;;4949295;28;20040;-66
2022/01/29 03:52:05;;;;;;;0.10;0.10;;;19.50;44.50;;;;;;4944919;28;20039;-68
2022/01/29 03:54:32;;;;;;;0.10;0.10;;;19.50;44.50;;;;;;4944352;28;20043;-69
2022/01/29 03:56:59;;;;;;;0.10;0.10;;;19.50;44.50;;;;;;4946341;28;20069;-67
2022/01/29 03:59:26;;;;;;;0.10;0.10;;;19.50;44.50;;;;;;4948295;28;20050;-68
2022/01/29 04:01:53;;;;;;;0.10;0.10;;;19.50;44.50;;;;;;4948115;28;20059;-68
2022/01/29 04:04:20;;;;;;;0.20;0.10;;;19.50;44.60;;;;;;4949308;28;20428;-66
2022/01/29 04:06:49;;;;;;;0.10;0.10;;;19.50;44.60;;;;;;4947596;28;20054;-68
2022/01/29 04:09:17;;;;;;;0.35;0.00;;;19.50;44.70;;;;;;4947750;28;20047;-68
2022/01/29 04:11:44;;;;;;;0.10;0.10;;;19.50;44.70;;;;;;4948904;28;20853;-68
2022/01/29 04:14:16;;;;;;;0.35;0.35;;;19.50;44.70;;;;;;4947307;28;20031;-68
2022/01/29 04:16:44;;;;;;;0.17;0.10;;;19.50;44.70;;;;;;4949637;29;20568;-68
2022/01/29 04:19:11;;;;;;;0.08;0.08;;;19.50;44.70;;;;;;4948161;28;20043;-68
2022/01/29 04:21:38;;;;;;;0.10;0.10;;;19.50;44.80;;;;;;4947201;28;20054;-68
2022/01/29 04:24:07;;;;;;;0.20;0.20;;;19.50;44.80;;;;;;4947712;28;20046;-68
2022/01/29 04:26:35;;;;;;;0.20;0.20;;;19.50;44.80;;;;;;4947724;28;20159;-67
2022/01/29 04:29:04;;;;;;;0.80;0.10;;;19.40;44.70;;;;;;4948181;28;20047;-67
2022/01/29 04:31:39;;;;;;;0.20;0.10;;;19.50;44.80;;;;;;4949410;29;20071;-68
2022/01/29 04:34:06;;;;;;;0.52;0.10;;;19.50;44.80;;;;;;4947243;28;20098;-68
2022/01/29 04:36:33;;;;;;;0.20;0.20;;;19.50;44.90;;;;;;4947192;28;20039;-67
2022/01/29 04:39:00;;;;;;;0.68;0.20;;;19.40;44.80;;;;;;4945912;28;20058;-67
2022/01/29 04:41:28;;;;;;;0.10;0.10;;;19.50;44.90;;;;;;4944944;28;20735;-67
2022/01/29 04:43:55;;;;;;;0.10;0.10;;;19.50;45.50;;;;;;4945068;28;20527;-67
2022/01/29 04:46:22;;;;;;;0.38;0.10;;;19.50;44.90;;;;;;4946512;28;20542;-66
2022/01/29 04:48:49;;;;;;;0.10;0.10;;;19.50;44.90;;;;;;4944905;28;20051;-68
2022/01/29 04:51:16;;;;;;;0.10;0.10;;;19.40;44.90;;;;;;4943755;28;20039;-68
2022/01/29 04:53:43;;;;;;;0.30;0.10;;;19.50;45.00;;;;;;4942795;28;20043;-66
2022/01/29 04:56:10;;;;;;;3.80;0.05;;;19.40;44.90;;;;;;4944860;28;20044;-68
2022/01/29 04:58:38;;;;;;;1.10;0.30;;;19.40;44.90;;;;;;4946512;29;20051;-68
2022/01/29 05:01:06;;;;;;;0.20;0.15;;;19.40;45.00;;;;;;4927052;29;20427;-68
2022/01/29 05:03:33;;;;;;;0.10;0.10;;;19.50;45.10;;;;;;4944520;28;20044;-67
2022/01/29 05:06:01;;;;;;;0.35;0.20;;;19.50;45.10;;;;;;4944436;28;20047;-68
2022/01/29 05:08:28;;;;;;;0.10;0.10;;;19.40;45.00;;;;;;4944625;28;20055;-67
2022/01/29 05:10:55;;;;;;;0.52;0.10;;;19.40;45.00;;;;;;4947370;28;20823;-68
2022/01/29 05:13:26;;;;;;;0.10;0.10;;;19.40;45.10;;;;;;4947302;28;20047;-69
2022/01/29 05:16:12;;;;;;;0.20;0.10;;;19.40;45.10;;;;;;4947100;28;20083;-68
2022/01/29 05:26:54;;;;;;;0.10;0.10;;;19.40;45.20;;;;;;4941130;28;20042;-62
2022/01/29 05:29:22;;;;;;;0.30;0.30;;;19.40;45.20;;;;;;4947256;28;20050;-67
2022/01/29 05:31:51;;;;;;;6.65;0.13;;;19.40;45.30;;;;;;4947274;28;20047;-67
2022/01/29 05:34:19;;;;;;;0.10;0.10;;;19.40;45.30;;;;;;4947969;28;20106;-68
2022/01/29 05:36:46;;;;;;;0.20;0.10;;;19.40;45.30;;;;;;4946714;28;20039;-67
2022/01/29 05:39:13;;;;;;;0.15;0.10;;;19.50;45.40;;;;;;4946683;28;20051;-68
2022/01/29 05:41:40;;;;;;;0.10;0.10;;;19.40;45.30;;;;;;4946892;28;20043;-68
2022/01/29 05:44:07;;;;;;;0.10;0.10;;;19.40;45.30;;;;;;4947075;28;20043;-67
2022/01/29 05:46:34;;;;;;;0.10;0.10;;;19.40;45.40;;;;;;4948652;29;20058;-68
2022/01/29 05:49:03;;;;;;;0.10;0.10;;;19.40;45.40;;;;;;4945963;28;20054;-67
2022/01/29 05:51:31;;;;;;;1.85;0.10;;;19.50;45.50;;;;;;4948681;28;20047;-68
2022/01/29 05:53:59;;;;;;;0.10;0.10;;;19.40;45.40;;;;;;4942137;28;20082;-68
2022/01/29 05:56:26;;;;;;;0.10;0.10;;;19.40;45.40;;;;;;4949088;28;20050;-68
2022/01/29 05:58:53;;;;;;;1.55;0.10;;;19.40;45.40;;;;;;4950197;28;20456;-67
2022/01/29 06:01:20;;;;;;;0.20;0.10;;;19.40;45.40;;;;;;4950931;28;20043;-67
2022/01/29 06:03:47;;;;;;;0.32;0.10;;;19.50;45.50;;;;;;4949232;28;20055;-68
2022/01/29 06:06:16;;;;;;;0.32;0.25;;;19.50;45.50;;;;;;4949709;28;20039;-68
2022/01/29 06:08:43;;;;;;;0.22;0.20;;;19.50;45.50;;;;;;4949573;28;20047;-68
2022/01/29 06:11:10;;;;;;;0.30;0.10;;;19.40;45.40;;;;;;4949527;28;20113;-68
2022/01/29 06:13:37;;;;;;;0.57;0.20;;;19.40;45.40;;;;;;4951355;28;20539;-67
2022/01/29 06:16:05;;;;;;;0.10;0.10;;;19.40;45.50;;;;;;4949875;28;20047;-68
2022/01/29 06:18:33;;;;;;;0.10;0.10;;;19.50;45.50;;;;;;4950385;28;20055;-68
2022/01/29 06:21:04;;;;;;;2.08;0.30;;;19.40;45.40;;;;;;4949728;28;20106;-68
2022/01/29 06:23:34;;;;;;;0.28;0.10;;;19.40;45.40;;;;;;4948198;28;20043;-68
2022/01/29 06:26:04;;;;;;;1.95;0.10;;;19.40;45.40;;;;;;4930808;28;20090;-68
2022/01/29 06:28:32;;;;;;;0.10;0.10;;;19.40;46.00;;;;;;4951318;29;20054;-68
2022/01/29 06:30:59;;;;;;;0.20;0.10;;;19.40;45.40;;;;;;4950058;28;20603;-67
2022/01/29 06:33:26;;;;;;;0.10;0.10;;;19.50;45.50;;;;;;4949179;28;20047;-69
2022/01/29 06:35:53;;;;;;;0.20;0.00;;;19.40;45.40;;;;;;4948527;28;20047;-67
2022/01/29 06:38:20;;;;;;;0.30;0.10;;;19.40;45.50;;;;;;4949531;28;20050;-67
2022/01/29 06:40:49;;;;;;;1.75;0.10;;;19.40;45.50;;;;;;4949561;28;20818;-67
2022/01/29 06:43:16;;;;;;;0.03;0.03;;;19.50;45.60;;;;;;4950262;28;20558;-67
2022/01/29 06:45:45;;;;;;;0.10;0.10;;;19.40;45.60;;;;;;4948998;28;20047;-65
2022/01/29 06:48:14;;;;;;;0.00;0.00;;;19.50;45.70;;;;;;4948876;28;20051;-67
2022/01/29 06:50:42;;;;;;;1.27;0.10;;;19.50;45.60;;;;;;4949483;28;20036;-66
2022/01/29 06:53:09;;;;;;;0.10;0.10;;;19.40;45.60;;;;;;4949026;28;20062;-66
2022/01/29 06:55:36;;;;;;;0.10;0.10;;;19.40;45.60;;;;;;4948536;29;20043;-66
2022/01/29 06:58:04;;;;;;;0.30;0.00;;;19.40;45.60;;;;;;4948834;28;20047;-67
2022/01/29 07:00:32;;;;;;;1.98;0.20;;;19.50;45.70;;;;;;4947728;28;20036;-64
2022/01/29 07:02:59;;;;;;;0.10;0.10;;;19.40;45.60;;;;;;4947214;28;20216;-65
2022/01/29 07:05:27;;;;;;;0.45;0.25;;;19.40;45.70;;;;;;4948595;28;20097;-67
2022/01/29 07:07:54;;;;;;;0.10;0.10;;;19.40;45.70;;;;;;4948402;28;20130;-66
2022/01/29 07:10:21;;;;;;;0.20;0.10;;;19.40;45.70;;;;;;4949593;28;20102;-66
2022/01/29 07:12:48;;;;;;;1.23;0.10;;;19.40;45.70;;;;;;4946130;28;20047;-67
2022/01/29 07:15:17;;;;;;;0.00;0.00;;;19.40;45.80;;;;;;4948261;28;20142;-66
2022/01/29 07:17:44;;;;;;;1.58;0.10;;;19.40;45.90;;;;;;4948694;28;20043;-63
2022/01/29 07:20:12;;;;;;;2.47;0.17;;;19.40;46.00;;;;;;4947829;28;20090;-64
2022/01/29 07:22:40;;;;;;;0.10;0.10;;;19.40;46.10;;;;;;4949718;29;20044;-64
2022/01/29 07:25:08;;;;;;;1.52;0.15;;;19.50;46.40;;;;;;4947653;28;20073;-64
2022/01/29 07:27:35;;;;;;;2.25;0.10;;;19.40;46.60;;;;;;4948332;28;20150;-63
2022/01/29 07:30:02;;;;;;;6.68;0.17;;;19.50;47.40;;;;;;4947331;28;20070;-64
2022/01/29 07:32:31;;;;;;;2.70;0.10;;;19.50;48.40;;;;;;4947920;28;20295;-56
2022/01/29 07:34:59;;;;;;;0.57;0.10;;;19.50;48.80;;;;;;4948032;28;20051;-46
2022/01/29 07:37:26;;;;;;;11.18;0.38;;;19.50;48.80;;;;;;4949642;28;20055;-46
2022/01/29 07:39:53;;;;;;;3.13;0.20;;;19.50;48.90;;;;;;4930200;29;20131;-50
2022/01/29 07:42:20;;;;;;;4.13;0.10;;;19.50;48.80;;;;;;4947252;28;20051;-49
2022/01/29 07:44:48;;;;;;;2.30;0.38;;;19.50;48.90;;;;;;4947485;28;20539;-48
2022/01/29 07:47:15;;;;;;;2.40;0.10;;;19.60;48.80;;;;;;4946445;28;20059;-53
2022/01/29 07:49:43;;;;;;;1.90;0.20;;;19.60;48.80;;;;;;4949180;28;20046;-53
2022/01/29 07:52:10;;;;;;;3.65;0.22;;;19.60;48.80;;;;;;4947518;28;20515;-49
2022/01/29 07:54:37;;;;;;;2.05;0.10;;;19.60;48.80;;;;;;4946659;28;20588;-52
2022/01/29 07:57:05;;;;;;;10.05;1.42;;;19.60;48.80;;;;;;4947193;28;20039;-50
2022/01/29 07:59:32;;;;;;;4.20;0.47;;;19.60;48.80;;;;;;4948033;28;20044;-48
2022/01/29 08:01:59;;;;;;;3.35;0.25;;;19.60;48.70;;;;;;4948404;28;20054;-49
2022/01/29 08:04:26;;;;;;;4.35;0.40;;;19.60;48.60;;;;;;4948133;29;20420;-56
2022/01/29 08:06:55;;;;;;;3.35;0.10;;;19.60;48.50;;;;;;4947982;28;20054;-52
2022/01/29 08:09:22;;;;;;;0.63;0.20;;;19.60;48.50;;;;;;4947906;28;20061;-48
2022/01/29 08:11:49;;;;;;;0.38;0.38;;;19.60;48.40;;;;;;4947713;28;20822;-49
2022/01/29 08:14:16;;;;;;;2.83;0.10;;;19.60;48.30;;;;;;4943740;28;20050;-53
2022/01/29 08:16:43;;;;;;;1.95;0.52;;;19.60;48.20;;;;;;4948171;29;20047;-51
2022/01/29 08:19:10;;;;;;;1.95;0.00;;;19.60;48.10;;;;;;4947833;28;20047;-53
2022/01/29 08:21:38;;;;;;;0.65;0.10;;;19.60;48.10;;;;;;4947404;28;20504;-51
2022/01/29 08:24:07;;;;;;;1.63;0.08;;;19.60;48.00;;;;;;4947917;28;20133;-51
2022/01/29 08:26:35;;;;;;;2.47;0.00;;;19.60;48.60;;;;;;4947844;28;20129;-49
2022/01/29 08:29:02;;;;;;;1.02;0.30;;;19.60;47.90;;;;;;4947242;28;20046;-49
2022/01/29 08:31:29;;;;;;;1.55;0.15;;;19.60;47.90;;;;;;4949143;29;20043;-49
2022/01/29 08:33:56;;;;;;;1.15;0.10;;;19.60;47.80;;;;;;4947309;28;20039;-53
2022/01/29 08:36:23;;;;;;;0.20;0.08;;;19.60;47.80;;;;;;4947118;28;20067;-51
2022/01/29 08:38:51;;;;;;;1.17;0.50;;;19.60;47.70;;;;;;4947677;28;20043;-50
2022/01/29 08:41:19;;;;;;;8.25;0.20;;;19.60;47.70;;;;;;4946826;28;20056;-51
2022/01/29 08:43:46;;;;;;;3.30;0.20;;;19.60;47.60;;;;;;4947900;28;20439;-49
2022/01/29 08:46:13;;;;;;;3.08;0.15;;;19.60;47.60;;;;;;4947979;28;20047;-52
2022/01/29 08:48:41;;;;;;;0.77;0.10;;;19.60;47.50;;;;;;4947343;28;20055;-51
2022/01/29 08:51:08;;;;;;;0.85;0.00;;;19.60;47.60;;;;;;4947318;28;20039;-48
2022/01/29 08:53:35;;;;;;;0.13;0.00;;;19.50;47.40;;;;;;4947654;28;20035;-51
2022/01/29 08:56:03;;;;;;;0.10;0.00;;;19.60;47.50;;;;;;4947511;28;20143;-48
2022/01/29 08:58:31;;;;;;;0.45;0.03;;;19.60;47.40;;;;;;4948559;29;20039;-49
2022/01/29 09:00:59;;;;;;;0.00;0.00;;;19.60;47.40;;;;;;4947713;28;20361;-51
2022/01/29 09:03:26;;;;;;;1.58;0.10;;;19.60;47.40;;;;;;4947034;28;20535;-51
2022/01/29 09:05:54;;;;;;;0.10;0.03;;;19.60;47.30;;;;;;4946809;28;20126;-48
2022/01/29 09:08:22;;;;;;;0.20;0.10;;;19.50;47.20;;;;;;4947120;28;20986;-53
2022/01/29 09:10:50;;;;;;;0.88;0.00;;;19.60;47.30;;;;;;4947771;28;20043;-48
2022/01/29 09:13:17;;;;;;;0.17;0.00;;;19.60;47.30;;;;;;4947872;28;20051;-49
2022/01/29 09:15:45;;;;;;;0.00;0.00;;;19.50;47.20;;;;;;4947405;28;20074;-49
2022/01/29 09:18:12;;;;;;;0.08;0.00;;;19.50;47.20;;;;;;4947029;28;20042;-51
2022/01/29 09:20:40;;;;;;;1.08;0.00;;;19.60;47.20;;;;;;4947206;28;20054;-52
2022/01/29 09:23:08;;;;;;;0.00;0.00;;;19.50;47.10;;;;;;4947130;28;20047;-52
2022/01/29 09:25:36;;;;;;;0.10;0.10;;;19.50;47.10;;;;;;4948954;28;20047;-50
2022/01/29 09:28:03;;;;;;;0.00;0.00;;;19.60;47.10;;;;;;4950789;28;20059;-54
2022/01/29 09:30:31;;;;;;;2.85;0.10;;;19.60;47.10;;;;;;4950789;28;20054;-51
2022/01/29 09:32:59;;;;;;;0.10;0.00;;;19.50;47.10;;;;;;4950878;28;20039;-49
2022/01/29 09:35:27;;;;;;;0.13;0.00;;;19.50;47.10;;;;;;4950594;28;20057;-51
2022/01/29 09:37:55;;;;;;;0.40;0.00;;;19.60;47.10;;;;;;4950801;28;20050;-54
2022/01/29 09:40:22;;;;;;;0.00;0.00;;;19.60;47.00;;;;;;4951425;28;20057;-52
2022/01/29 09:42:51;;;;;;;0.25;0.10;;;19.60;47.00;;;;;;4950513;29;20054;-51
2022/01/29 09:45:20;;;;;;;0.08;0.08;;;19.60;47.00;;;;;;4950080;28;20090;-54
2022/01/29 09:47:49;;;;;;;0.40;0.00;;;19.60;47.00;;;;;;4950601;28;20042;-50
2022/01/29 09:50:19;;;;;;;0.08;0.00;;;19.60;46.90;;;;;;4950546;28;20046;-52
2022/01/29 09:52:46;;;;;;;0.00;0.00;;;19.60;46.90;;;;;;4949772;29;20727;-54
2022/01/29 09:55:13;;;;;;;0.00;0.00;;;19.60;46.90;;;;;;4950644;28;20133;-50
2022/01/29 09:57:40;;;;;;;0.10;0.03;;;19.60;46.80;;;;;;4949716;28;20714;-49
2022/01/29 10:00:10;;;;;;;0.13;0.00;;;19.60;46.80;;;;;;4950476;28;20043;-49
2022/01/29 10:02:40;;;;;;;0.03;0.00;;;19.60;46.80;;;;;;4949998;28;20468;-52
2022/01/29 10:05:11;;;;;;;0.32;0.00;;;19.60;46.80;;;;;;4950137;28;20488;-51
2022/01/29 10:07:39;;;;;;;0.10;0.00;;;19.60;46.80;;;;;;4951527;28;20378;-51
2022/01/29 10:10:19;;;;;;;0.00;0.00;;;19.70;46.80;;;;;;4950131;28;20051;-51
2022/01/29 10:12:46;;;;;;;0.03;0.03;;;19.60;46.70;;;;;;4950327;28;20043;-50
2022/01/29 10:15:13;;;;;;;0.10;0.03;;;19.60;46.70;;;;;;4950362;28;20065;-51
2022/01/29 10:17:45;;;;;;;1.00;0.05;;;19.60;46.70;;;;;;4950272;28;20122;-49
2022/01/29 10:20:19;;;;;;;0.10;0.00;;;19.60;46.70;;;;;;4949732;28;20550;-51
2022/01/29 10:22:50;;;;;;;0.17;0.00;;;19.60;46.70;;;;;;4951482;29;20047;-54
2022/01/29 10:25:20;;;;;;;0.70;0.10;;;19.60;46.70;;;;;;4949804;28;20049;-53
2022/01/29 10:28:10;;;;;;;0.85;0.03;;;19.60;46.70;;;;;;4949807;28;20090;-50
2022/01/29 10:30:56;;;;;;;0.03;0.00;;;19.60;46.60;;;;;;4949609;28;20113;-48
2022/01/29 10:33:25;;;;;;;0.10;0.03;;;19.60;46.70;;;;;;4943477;28;20058;-52
2022/01/29 10:35:54;;;;;;;0.08;0.00;;;19.60;46.70;;;;;;4943339;28;20074;-53
2022/01/29 10:38:24;;;;;;;0.30;0.00;;;19.60;46.70;;;;;;4942221;28;20062;-53
2022/01/29 10:41:18;;;;;;;0.00;0.00;;;19.60;46.60;;;;;;4949992;28;20110;-51
2022/01/29 10:43:57;;;;;;;0.20;0.03;;;19.60;46.60;;;;;;4950849;29;20047;-51
2022/01/29 10:46:28;;;;;;;0.10;0.10;;;19.60;46.60;;;;;;4950293;28;20039;-48
2022/01/29 10:48:56;;;;;;;0.05;0.00;;;19.60;46.60;;;;;;4949266;28;20043;-50
2022/01/29 10:51:24;;;;;;;0.10;0.00;;;19.60;46.60;;;;;;4946356;28;20051;-48
2022/01/29 10:53:53;;;;;;;0.10;0.10;;;19.60;46.60;;;;;;4948790;28;20129;-47
2022/01/29 10:56:20;;;;;;;0.10;0.10;;;19.60;46.50;;;;;;4949485;28;20098;-49
2022/01/29 10:58:50;;;;;;;0.20;0.03;;;19.60;46.50;;;;;;4950326;29;20529;-47
2022/01/29 11:01:19;;;;;;;0.00;0.00;;;19.60;46.50;;;;;;4948605;28;20512;-54
2022/01/29 11:03:46;;;;;;;0.10;0.00;;;19.60;46.50;;;;;;4949055;28;20141;-52
2022/01/29 11:06:18;;;;;;;0.45;0.00;;;19.70;46.50;;;;;;4949146;28;20393;-52
2022/01/29 11:08:45;;;;;;;0.20;0.10;;;19.70;46.50;;;;;;4942686;28;20040;-51
2022/01/29 11:11:15;;;;;;;0.00;0.00;;;19.70;46.50;;;;;;4948423;28;20107;-50
2022/01/29 11:13:47;;;;;;;0.17;0.00;;;19.70;46.50;;;;;;4950464;29;20123;-49
2022/01/29 11:16:16;;;;;;;0.10;0.00;;;19.70;46.50;;;;;;4949313;28;20044;-47
2022/01/29 11:18:43;;;;;;;0.00;0.00;;;19.70;46.50;;;;;;4949129;28;20530;-48
2022/01/29 11:21:11;;;;;;;0.00;0.00;;;19.70;46.50;;;;;;4947996;28;20388;-51
2022/01/29 11:23:41;;;;;;;0.17;0.00;;;19.70;46.50;;;;;;4948598;28;20054;-52
2022/01/29 11:26:08;;;;;;;0.00;0.00;;;19.70;46.50;;;;;;4948624;28;20122;-49
2022/01/29 11:28:37;;;;;;;0.00;0.00;;;19.70;46.50;;;;;;4949872;29;20043;-50
2022/01/29 11:31:22;;;;;;;0.08;0.08;;;19.70;46.50;;;;;;4948075;28;20071;-48
2022/01/29 11:34:21;;;;;;;0.10;0.10;;;19.70;46.40;;;;;;4947678;28;20051;-50
2022/01/29 11:37:07;;;;;;;0.10;0.00;;;19.70;46.40;;;;;;4948137;28;20111;-47
2022/01/29 11:39:36;;;;;;;0.00;0.00;;;19.70;46.50;;;;;;4947995;28;20049;-53
2022/01/29 11:42:28;;;;;;;0.30;0.00;;;19.70;46.50;;;;;;4946917;28;20062;-51
2022/01/29 11:44:58;;;;;;;0.00;0.00;;;19.70;46.50;;;;;;4942151;28;20050;-54
2022/01/29 11:47:47;;;;;;;0.10;0.10;;;19.70;46.50;;;;;;4948346;28;20737;-52
2022/01/29 11:50:51;;;;;;;0.10;0.00;;;19.70;46.50;;;;;;4947544;28;20058;-47
2022/01/29 11:53:20;;;;;;;0.00;0.00;;;19.70;46.50;;;;;;4948045;28;20047;-51
2022/01/29 11:55:51;;;;;;;0.00;0.00;;;19.60;46.40;;;;;;4948985;29;20039;-54
2022/01/29 11:58:23;;;;;;;0.52;0.10;;;19.60;46.40;;;;;;4947728;28;20051;-51
2022/01/29 12:00:54;;;;;;;0.00;0.00;;;19.70;46.50;;;;;;4948031;28;20047;-51
2022/01/29 12:03:53;;;;;;;0.08;0.00;;;19.70;46.50;;;;;;4947614;28;20061;-48
2022/01/29 12:06:23;;;;;;;0.10;0.10;;;19.70;46.40;;;;;;4946635;28;20055;-47
2022/01/29 12:09:24;;;;;;;0.00;0.00;;;19.60;46.40;;;;;;4945703;28;20066;-52
2022/01/29 12:12:14;;;;;;;0.00;0.00;;;19.70;46.40;;;;;;4947436;28;20035;-52
2022/01/29 12:14:41;;;;;;;0.00;0.00;;;19.70;46.50;;;;;;4947747;28;20114;-50
2022/01/29 12:17:09;;;;;;;0.55;0.10;;;19.60;46.40;;;;;;4947804;28;20372;-52
2022/01/29 12:19:39;;;;;;;0.10;0.10;;;19.70;46.50;;;;;;4948655;28;20168;-53
2022/01/29 12:22:11;;;;;;;0.00;0.00;;;19.60;46.40;;;;;;4948027;28;20399;-52
2022/01/29 12:24:40;;;;;;;0.00;0.00;;;19.70;46.50;;;;;;4946718;28;20106;-54
2022/01/29 12:27:08;;;;;;;0.10;0.00;;;19.70;46.50;;;;;;4947323;28;20042;-53
2022/01/29 12:29:35;;;;;;;0.10;0.00;;;19.70;46.50;;;;;;4947585;28;20035;-52
2022/01/29 12:32:03;;;;;;;1.55;0.00;;;19.70;46.50;;;;;;4947850;28;20122;-52
2022/01/29 12:34:32;;;;;;;0.00;0.00;;;19.70;46.50;;;;;;4947073;29;20051;-53
2022/01/29 12:37:09;;;;;;;0.00;0.00;;;19.70;46.50;;;;;;4947898;28;20539;-55
2022/01/29 12:39:37;;;;;;;1.00;0.00;;;19.70;46.50;;;;;;4947588;28;20043;-54
2022/01/29 12:42:12;;;;;;;0.32;0.00;;;19.70;46.50;;;;;;4930018;29;20047;-50
2022/01/29 12:44:41;;;;;;;0.00;0.00;;;19.70;46.50;;;;;;4947453;28;20043;-50
2022/01/29 12:47:08;;;;;;;0.10;0.00;;;19.70;46.50;;;;;;4947290;28;20059;-53
2022/01/29 12:49:43;;;;;;;0.05;0.00;;;19.70;46.50;;;;;;4948556;29;20047;-53
2022/01/29 12:52:15;;;;;;;0.52;0.00;;;19.70;46.50;;;;;;4947493;28;20134;-52
2022/01/29 12:54:52;;;;;;;0.03;0.00;;;19.70;46.50;;;;;;4947156;28;20071;-49
2022/01/29 12:57:20;;;;;;;0.32;0.00;;;19.70;46.50;;;;;;4947423;28;20035;-53
2022/01/29 12:59:48;;;;;;;0.45;0.10;;;19.70;46.50;;;;;;4946989;28;20050;-53
2022/01/29 13:02:16;;;;;;;1.02;0.10;;;19.60;46.50;;;;;;4950994;28;20050;-49
2022/01/29 13:04:46;;;;;;;0.90;0.10;;;19.70;46.50;;;;;;4952378;28;20051;-48